San Felice — 9HA2811 — position and weather

sailwx.info

Track history (hours):
 
Tides and Currents Weather Stations Pressure Air Temp Water Temp Dewpoint Dewpoint Depression Visibility Wind Speed Wind Dir Waves Ship Positions

San Felice

Last reported at 2017-Sep-04 10:49 UTC. Time now 2017-Sep-23 07:20 UTC.
Position S 02°05' W 044°07'.
Warning: this ship's position is 18 days out of date.

Length 180 m; draft 8.6 m.

Type: Cargo ship. MMSI: 256054000.

Date/timePositionNaut miles runAvg speedWind from/ knotsBaromVisibWave heightAir tempDewpointWater temp
2017-Sep-04 10:49S 02°05' W 044°07'514.8
2017-Sep-04 10:30S 02°09' W 044°10'714.4
2017-Sep-04 10:00S 02°15' W 044°14'713.9
2017-Sep-04 09:31S 02°21' W 044°17'713.3
2017-Sep-04 09:01S 02°27' W 044°21'611.5
2017-Sep-04 08:31S 02°32' W 044°23'3 2.7
2017-Sep-04 07:28S 02°35' W 044°22'0 0.0
2017-Sep-04 06:58S 02°35' W 044°22'0 0.0
2017-Sep-04 06:26S 02°35' W 044°22'0 0.0
2017-Sep-04 05:55S 02°35' W 044°22'0 0.0
2017-Sep-04 05:28S 02°35' W 044°22'0 0.0
2017-Sep-04 04:58S 02°35' W 044°22'0 0.0
2017-Sep-04 00:22S 02°35' W 044°22'0 0.0
2017-Sep-03 23:13S 02°35' W 044°22'0 0.0
2017-Sep-03 22:58S 02°35' W 044°22'0 0.0
2017-Sep-03 14:55S 02°35' W 044°22'0 0.0
2017-Sep-03 13:58S 02°35' W 044°22'0 0.0
2017-Sep-03 11:37S 02°35' W 044°22'0 0.0
2017-Sep-03 11:28S 02°35' W 044°22'0 0.0
2017-Sep-03 10:49S 02°35' W 044°22'0 0.0
2017-Sep-03 10:19S 02°35' W 044°22'0 0.0
2017-Sep-03 08:37S 02°35' W 044°22'0 0.0
2017-Sep-03 08:07S 02°35' W 044°22'0 0.0
2017-Sep-03 06:52S 02°35' W 044°22'0 0.0
2017-Sep-03 06:25S 02°35' W 044°22'0 0.0
2017-Sep-03 05:37S 02°35' W 044°22'0 0.0
2017-Sep-03 05:22S 02°35' W 044°22'0 0.0
2017-Sep-02 20:31S 02°35' W 044°22'0 0.0
2017-Sep-02 20:28S 02°35' W 044°22'0 0.0
2017-Sep-02 19:55S 02°35' W 044°22'1 1.4
2017-Sep-02 19:30S 02°34' W 044°23'5 9.3
2017-Sep-02 19:00S 02°30' W 044°23'4 8.0
2017-Sep-02 18:31S 02°26' W 044°21'3 6.3
2017-Sep-02 18:00S 02°24' W 044°19'2 3.5
2017-Sep-02 17:28S 02°24' W 044°17'0 0.2
2017-Sep-02 16:52S 02°24' W 044°17'0 0.0
2017-Sep-02 16:28S 02°24' W 044°17'0 0.0
2017-Sep-02 15:58S 02°24' W 044°17'0 0.0
2017-Sep-02 15:28S 02°24' W 044°17'0 0.0
2017-Sep-02 14:58S 02°24' W 044°17'0 0.3
2017-Sep-02 14:28S 02°24' W 044°17'0 0.2
2017-Sep-02 13:58S 02°24' W 044°17'0 0.0
2017-Sep-02 13:28S 02°24' W 044°17'0 0.0
2017-Sep-02 12:58S 02°24' W 044°17'0 0.0
2017-Sep-02 12:28S 02°24' W 044°17'0 0.0
2017-Sep-02 11:59S 02°24' W 044°17'0 0.0
2017-Sep-02 11:31S 02°24' W 044°17'0 0.0
2017-Sep-02 10:58S 02°24' W 044°17'0 0.0
2017-Sep-02 10:28S 02°23' W 044°17'0 0.0
2017-Sep-02 09:58S 02°23' W 044°17'0 0.3
2017-Sep-02 09:25S 02°24' W 044°17'0 0.2
2017-Sep-02 08:59S 02°24' W 044°17'0 0.1
2017-Sep-02 08:29S 02°24' W 044°17'0 0.1
2017-Sep-02 07:59S 02°24' W 044°17'0 0.0
2017-Sep-02 07:29S 02°24' W 044°17'0 0.0
2017-Sep-02 06:55S 02°24' W 044°17'0 0.0
2017-Sep-02 06:28S 02°24' W 044°17'0 0.0
2017-Sep-02 05:58S 02°24' W 044°17'1 1.7
2017-Sep-02 05:30S 02°23' W 044°17'4 8.2
2017-Sep-02 05:00S 02°19' W 044°16'713.5
2017-Sep-02 04:30S 02°13' W 044°12'713.2
2017-Sep-02 04:00S 02°07' W 044°09'  
2017-Aug-27 21:15N 17°14' W 060°53'413.0
2017-Aug-27 20:57N 17°17' W 060°55'613.3
2017-Aug-27 20:28N 17°21' W 061°00'613.4
2017-Aug-27 20:00N 17°26' W 061°04'713.4
2017-Aug-27 19:30N 17°31' W 061°09'713.4
2017-Aug-27 19:00N 17°36' W 061°14'713.4
2017-Aug-27 18:30N 17°41' W 061°19'713.1
2017-Aug-27 18:00N 17°45' W 061°23'713.3
2017-Aug-27 17:30N 17°50' W 061°28'713.4
2017-Aug-27 17:00N 17°55' W 061°33'  
Track history (hours):
 
Tides and Currents Weather Stations Pressure Air Temp Water Temp Dewpoint Dewpoint Depression Visibility Wind Speed Wind Dir Waves Ship Positions

San Felice

Last reported at 2017-Sep-04 10:49 UTC. Time now 2017-Sep-23 07:20 UTC.
Position S 02°05' W 044°07'.
Warning: this ship's position is 18 days out of date.

Length 180 m; draft 8.6 m.

Type: Cargo ship. MMSI: 256054000.

Date/timePositionNaut miles runAvg speedWind from/ knotsBaromVisibWave heightAir tempDewpointWater temp
2017-Sep-04 10:49S 02°05' W 044°07'514.8
2017-Sep-04 10:30S 02°09' W 044°10'714.4
2017-Sep-04 10:00S 02°15' W 044°14'713.9
2017-Sep-04 09:31S 02°21' W 044°17'713.3
2017-Sep-04 09:01S 02°27' W 044°21'611.5
2017-Sep-04 08:31S 02°32' W 044°23'3 2.7
2017-Sep-04 07:28S 02°35' W 044°22'0 0.0
2017-Sep-04 06:58S 02°35' W 044°22'0 0.0
2017-Sep-04 06:26S 02°35' W 044°22'0 0.0
2017-Sep-04 05:55S 02°35' W 044°22'0 0.0
2017-Sep-04 05:28S 02°35' W 044°22'0 0.0
2017-Sep-04 04:58S 02°35' W 044°22'0 0.0
2017-Sep-04 00:22S 02°35' W 044°22'0 0.0
2017-Sep-03 23:13S 02°35' W 044°22'0 0.0
2017-Sep-03 22:58S 02°35' W 044°22'0 0.0
2017-Sep-03 14:55S 02°35' W 044°22'0 0.0
2017-Sep-03 13:58S 02°35' W 044°22'0 0.0
2017-Sep-03 11:37S 02°35' W 044°22'0 0.0
2017-Sep-03 11:28S 02°35' W 044°22'0 0.0
2017-Sep-03 10:49S 02°35' W 044°22'0 0.0
2017-Sep-03 10:19S 02°35' W 044°22'0 0.0
2017-Sep-03 08:37S 02°35' W 044°22'0 0.0
2017-Sep-03 08:07S 02°35' W 044°22'0 0.0
2017-Sep-03 06:52S 02°35' W 044°22'0 0.0
2017-Sep-03 06:25S 02°35' W 044°22'0 0.0
2017-Sep-03 05:37S 02°35' W 044°22'0 0.0
2017-Sep-03 05:22S 02°35' W 044°22'0 0.0
2017-Sep-02 20:31S 02°35' W 044°22'0 0.0
2017-Sep-02 20:28S 02°35' W 044°22'0 0.0
2017-Sep-02 19:55S 02°35' W 044°22'1 1.4
2017-Sep-02 19:30S 02°34' W 044°23'5 9.3
2017-Sep-02 19:00S 02°30' W 044°23'4 8.0
2017-Sep-02 18:31S 02°26' W 044°21'3 6.3
2017-Sep-02 18:00S 02°24' W 044°19'2 3.5
2017-Sep-02 17:28S 02°24' W 044°17'0 0.2
2017-Sep-02 16:52S 02°24' W 044°17'0 0.0
2017-Sep-02 16:28S 02°24' W 044°17'0 0.0
2017-Sep-02 15:58S 02°24' W 044°17'0 0.0
2017-Sep-02 15:28S 02°24' W 044°17'0 0.0
2017-Sep-02 14:58S 02°24' W 044°17'0 0.3
2017-Sep-02 14:28S 02°24' W 044°17'0 0.2
2017-Sep-02 13:58S 02°24' W 044°17'0 0.0
2017-Sep-02 13:28S 02°24' W 044°17'0 0.0
2017-Sep-02 12:58S 02°24' W 044°17'0 0.0
2017-Sep-02 12:28S 02°24' W 044°17'0 0.0
2017-Sep-02 11:59S 02°24' W 044°17'0 0.0
2017-Sep-02 11:31S 02°24' W 044°17'0 0.0
2017-Sep-02 10:58S 02°24' W 044°17'0 0.0
2017-Sep-02 10:28S 02°23' W 044°17'0 0.0
2017-Sep-02 09:58S 02°23' W 044°17'0 0.3
2017-Sep-02 09:25S 02°24' W 044°17'0 0.2
2017-Sep-02 08:59S 02°24' W 044°17'0 0.1
2017-Sep-02 08:29S 02°24' W 044°17'0 0.1
2017-Sep-02 07:59S 02°24' W 044°17'0 0.0
2017-Sep-02 07:29S 02°24' W 044°17'0 0.0
2017-Sep-02 06:55S 02°24' W 044°17'0 0.0
2017-Sep-02 06:28S 02°24' W 044°17'0 0.0
2017-Sep-02 05:58S 02°24' W 044°17'1 1.7
2017-Sep-02 05:30S 02°23' W 044°17'4 8.2
2017-Sep-02 05:00S 02°19' W 044°16'713.5
2017-Sep-02 04:30S 02°13' W 044°12'713.2
2017-Sep-02 04:00S 02°07' W 044°09'  
2017-Aug-27 21:15N 17°14' W 060°53'413.0
2017-Aug-27 20:57N 17°17' W 060°55'613.3
2017-Aug-27 20:28N 17°21' W 061°00'613.4
2017-Aug-27 20:00N 17°26' W 061°04'713.4
2017-Aug-27 19:30N 17°31' W 061°09'713.4
2017-Aug-27 19:00N 17°36' W 061°14'713.4
2017-Aug-27 18:30N 17°41' W 061°19'713.1
2017-Aug-27 18:00N 17°45' W 061°23'713.3
2017-Aug-27 17:30N 17°50' W 061°28'713.4
2017-Aug-27 17:00N 17°55' W 061°33'  

Dump ship's entire track history